Time;durP1;ratioP1;P1;durP2;ratioP2;P2;SDS_P1;SDS_P2;PMS_P1;PMS_P2;Temp;Humidity;BMP_temperature;BMP_pressure;BME280_temperature;BME280_humidity;BME280_pressure;Samples;Min_cycle;Max_cycle;Signal;HPM_P1;HPM_P2
2022/08/24 00:01:08;;;;;;;5.23;2.70;;;;;;;24.36;72.76;98517.72;6038620;23;20157;-89
2022/08/24 00:03:34;;;;;;;4.40;2.20;;;;;;;24.29;72.53;98508.75;6039698;23;20529;-90
2022/08/24 00:06:00;;;;;;;4.43;2.13;;;;;;;24.29;72.30;98503.41;6040044;23;20170;-90
2022/08/24 00:08:26;;;;;;;4.87;2.93;;;;;;;24.34;71.75;98501.00;6039707;23;20154;-89
2022/08/24 00:10:52;;;;;;;6.57;2.67;;;;;;;24.25;72.76;98502.09;6039746;23;20476;-89
2022/08/24 00:13:19;;;;;;;6.93;3.20;;;;;;;24.29;72.55;98492.69;6040034;23;20224;-89
2022/08/24 00:15:44;;;;;;;4.27;2.33;;;;;;;24.14;73.41;98500.69;6039715;23;20150;-90
2022/08/24 00:18:10;;;;;;;4.83;2.30;;;;;;;24.13;73.45;98506.22;6039699;23;20164;-89
2022/08/24 00:20:37;;;;;;;6.50;2.90;;;;;;;24.08;73.63;98516.63;6039655;23;20181;-89
2022/08/24 00:23:03;;;;;;;4.73;2.63;;;;;;;24.05;73.75;98503.59;6039896;23;20201;-89
2022/08/24 00:25:30;;;;;;;7.13;3.03;;;;;;;24.01;73.44;98516.50;6039307;23;20601;-89
2022/08/24 00:27:55;;;;;;;6.03;2.70;;;;;;;24.02;74.04;98514.66;6039615;23;20153;-89
2022/08/24 00:30:21;;;;;;;6.77;3.03;;;;;;;23.97;74.15;98507.16;6040192;23;20161;-89
2022/08/24 00:32:47;;;;;;;5.93;3.27;;;;;;;23.89;74.63;98512.59;6039512;23;20220;-90
2022/08/24 00:35:17;;;;;;;6.43;3.33;;;;;;;23.91;74.79;98525.78;6039881;23;20177;-89
2022/08/24 00:37:43;;;;;;;7.47;3.80;;;;;;;23.85;74.78;98517.47;6038341;23;20157;-89
2022/08/24 00:40:24;;;;;;;5.40;3.03;;;;;;;23.76;75.84;98521.22;6038395;23;20153;-89
2022/08/24 00:42:51;;;;;;;11.67;4.70;;;;;;;23.75;76.29;98524.06;6038368;23;20185;-88
2022/08/24 00:45:19;;;;;;;10.77;4.97;;;;;;;23.69;76.73;98527.44;6039873;23;20160;-89
2022/08/24 00:47:53;;;;;;;8.30;5.13;;;;;;;23.65;77.34;98531.50;6039542;23;20154;-89
2022/08/24 00:50:28;;;;;;;8.93;5.47;;;;;;;23.55;78.02;98531.75;6039890;23;20144;-88
2022/08/24 00:53:00;;;;;;;9.13;5.00;;;;;;;23.54;78.14;98532.75;6040581;23;20532;-89
2022/08/24 00:55:37;;;;;;;7.63;4.13;;;;;;;23.52;78.70;98534.75;6039548;23;20169;-89
2022/08/24 00:58:07;;;;;;;8.53;4.70;;;;;;;23.55;78.50;98530.91;6039826;23;20205;-89
2022/08/24 01:00:39;;;;;;;7.33;4.10;;;;;;;23.52;78.32;98537.44;6038388;23;20150;-88
2022/08/24 01:03:05;;;;;;;8.23;5.03;;;;;;;23.40;79.14;98554.88;6039394;23;20540;-88
2022/08/24 01:05:33;;;;;;;10.23;5.27;;;;;;;23.35;80.05;98551.88;6039386;23;20212;-89
2022/08/24 01:08:00;;;;;;;14.20;6.03;;;;;;;23.22;80.79;98563.13;6039416;23;20193;-88
2022/08/24 01:10:28;;;;;;;10.77;5.43;;;;;;;23.30;80.31;98564.09;6038262;23;20157;-89
2022/08/24 01:12:57;;;;;;;11.40;5.57;;;;;;;23.30;80.46;98556.91;6039384;23;20146;-89
2022/08/24 01:15:22;;;;;;;9.47;4.93;;;;;;;23.38;80.00;98553.38;6039698;23;20165;-89
2022/08/24 01:20:33;;;;;;;9.23;5.77;;;;;;;23.41;79.77;98561.91;6039742;23;20213;-89
2022/08/24 01:23:11;;;;;;;8.97;4.80;;;;;;;23.33;79.67;98559.25;6038089;23;20200;-89
2022/08/24 01:25:38;;;;;;;11.83;5.60;;;;;;;23.18;80.52;98556.47;6039683;23;20156;-88
2022/08/24 01:28:09;;;;;;;10.03;6.00;;;;;;;23.11;81.71;98568.06;6039982;23;20177;-89
2022/08/24 01:30:34;;;;;;;7.57;4.50;;;;;;;22.85;82.73;98562.94;6040093;23;20532;-88
2022/08/24 01:33:04;;;;;;;8.87;4.40;;;;;;;22.67;83.85;98567.66;6039344;23;20173;-89
2022/08/24 01:35:31;;;;;;;9.83;4.83;;;;;;;22.63;83.69;98567.19;6039297;23;20585;-88
2022/08/24 01:38:00;;;;;;;11.83;4.47;;;;;;;22.72;82.98;98565.31;6039703;23;20566;-89
2022/08/24 01:40:33;;;;;;;5.37;3.50;;;;;;;22.58;83.38;98564.16;6039867;23;20154;-88
2022/08/24 01:42:58;;;;;;;5.97;3.33;;;;;;;22.63;83.37;98567.19;6041620;23;20178;-88
2022/08/24 01:45:24;;;;;;;10.53;3.60;;;;;;;22.76;82.36;98576.50;6041297;23;20534;-88
2022/08/24 01:47:50;;;;;;;7.93;4.23;;;;;;;22.86;80.59;98577.16;6039773;23;20165;-88
2022/08/24 01:50:16;;;;;;;9.90;3.37;;;;;;;22.87;80.38;98579.66;6040911;23;20217;-88
2022/08/24 01:52:43;;;;;;;8.90;3.53;;;;;;;22.83;80.27;98585.50;6040873;23;20146;-88
2022/08/24 01:55:12;;;;;;;6.23;3.53;;;;;;;22.80;80.55;98583.19;6041194;23;20158;-88
2022/08/24 01:57:38;;;;;;;8.00;4.30;;;;;;;22.63;81.69;98591.25;6041496;23;20164;-89
2022/08/24 02:00:06;;;;;;;9.67;4.27;;;;;;;22.62;81.99;98581.53;6041195;23;20233;-88
2022/08/24 02:02:32;;;;;;;7.30;4.10;;;;;;;22.59;82.51;98592.53;6040637;23;20181;-89
2022/08/24 02:04:58;;;;;;;6.47;3.83;;;;;;;22.64;82.71;98595.56;6041061;23;20154;-88
2022/08/24 02:07:23;;;;;;;7.97;4.20;;;;;;;22.59;82.69;98589.84;6041454;23;20237;-88
2022/08/24 02:09:50;;;;;;;10.90;4.60;;;;;;;22.69;82.81;98591.56;6040735;23;20213;-88
2022/08/24 02:12:16;;;;;;;8.07;3.93;;;;;;;22.77;81.02;98588.88;6041010;23;20210;-89
2022/08/24 02:14:43;;;;;;;7.87;3.30;;;;;;;22.74;81.64;98583.88;6041023;23;20150;-88
2022/08/24 02:17:09;;;;;;;6.77;3.57;;;;;;;22.58;82.07;98593.56;6040626;23;20165;-88
2022/08/24 02:19:36;;;;;;;10.40;4.93;;;;;;;22.49;82.31;98591.88;6040694;23;20161;-88
2022/08/24 02:22:02;;;;;;;9.90;4.30;;;;;;;22.56;82.13;98590.19;6040864;23;20220;-88
2022/08/24 02:24:28;;;;;;;6.90;4.47;;;;;;;22.42;83.43;98590.91;6040938;23;20193;-89
2022/08/24 02:26:55;;;;;;;8.40;3.83;;;;;;;22.54;82.33;98589.53;6040926;23;20150;-88
2022/08/24 02:29:20;;;;;;;10.10;4.93;;;;;;;22.65;82.06;98583.03;6040893;23;20181;-89
2022/08/24 02:31:46;;;;;;;9.47;4.03;;;;;;;22.58;82.36;98580.19;6040359;23;20658;-88
2022/08/24 02:34:12;;;;;;;7.83;4.07;;;;;;;22.56;82.51;98576.84;6040867;23;20134;-88
2022/08/24 02:36:38;;;;;;;7.53;3.67;;;;;;;22.36;83.82;98574.69;6039278;23;20164;-88
2022/08/24 02:39:04;;;;;;;7.67;4.10;;;;;;;22.33;84.13;98570.53;6040466;23;20150;-88
2022/08/24 02:41:30;;;;;;;8.00;4.13;;;;;;;22.32;84.23;98568.88;6039284;23;20166;-88
2022/08/24 02:43:57;;;;;;;12.83;4.63;;;;;;;22.37;84.35;98577.22;6040655;23;20173;-89
2022/08/24 02:46:25;;;;;;;9.20;4.80;;;;;;;22.42;84.06;98569.53;6039240;23;20196;-89
2022/08/24 02:48:51;;;;;;;10.17;3.90;;;;;;;22.48;84.12;98582.19;6040438;23;20180;-89
2022/08/24 02:51:20;;;;;;;10.53;4.50;;;;;;;22.34;85.55;98587.38;6040340;23;20150;-88
2022/08/24 02:53:46;;;;;;;8.20;3.97;;;;;;;22.48;85.03;98586.72;6040309;23;20147;-88
2022/08/24 02:56:12;;;;;;;9.17;4.87;;;;;;;22.59;84.40;98586.34;6041022;23;20154;-88
2022/08/24 02:58:37;;;;;;;11.60;4.73;;;;;;;22.58;84.90;98590.88;6040296;23;20481;-88
2022/08/24 03:01:03;;;;;;;11.97;5.30;;;;;;;22.43;86.13;98587.22;6040578;23;20149;-88
2022/08/24 03:03:29;;;;;;;11.00;4.67;;;;;;;22.54;85.24;98584.19;6040108;23;20522;-88
2022/08/24 03:05:54;;;;;;;10.93;5.00;;;;;;;22.72;84.41;98584.00;6039029;23;20172;-88
2022/08/24 03:08:20;;;;;;;8.83;4.50;;;;;;;22.67;84.33;98582.88;6040158;23;20590;-88
2022/08/24 03:10:46;;;;;;;11.93;4.97;;;;;;;22.41;84.89;98594.56;6040470;23;20154;-89
2022/08/24 03:13:11;;;;;;;9.87;5.13;;;;;;;22.49;85.37;98583.88;6040475;23;20152;-89
2022/08/24 03:15:37;;;;;;;8.80;4.87;;;;;;;22.51;84.86;98584.53;6040404;23;20154;-88
2022/08/24 03:18:03;;;;;;;13.90;5.13;;;;;;;22.44;84.58;98578.19;6040099;23;20174;-89
2022/08/24 03:20:29;;;;;;;11.70;4.53;;;;;;;22.56;84.06;98582.19;6040736;23;20232;-88
2022/08/24 03:22:54;;;;;;;13.13;4.27;;;;;;;22.59;83.59;98586.34;6040298;23;20609;-88
2022/08/24 03:25:23;;;;;;;10.83;4.93;;;;;;;22.60;83.20;98583.53;6040080;23;20228;-88
2022/08/24 03:27:49;;;;;;;8.17;4.47;;;;;;;22.71;82.85;98578.84;6039997;23;20594;-88
2022/08/24 03:30:15;;;;;;;7.37;3.53;;;;;;;22.59;82.87;98587.19;6040062;23;20157;-88
2022/08/24 03:32:41;;;;;;;7.33;3.77;;;;;;;22.59;82.71;98581.00;6038728;23;20500;-88
2022/08/24 03:35:08;;;;;;;7.73;3.87;;;;;;;22.55;82.48;98583.19;6040017;23;20280;-88
2022/08/24 03:37:33;;;;;;;7.53;4.07;;;;;;;22.61;82.11;98587.84;6039976;23;20217;-88
2022/08/24 03:39:59;;;;;;;6.97;3.30;;;;;;;22.71;80.99;98584.19;6039953;23;20149;-88
2022/08/24 03:42:24;;;;;;;8.03;3.43;;;;;;;22.55;81.46;98587.72;6040217;23;20316;-89
2022/08/24 03:44:50;;;;;;;13.43;3.73;;;;;;;22.62;81.47;98591.34;6038722;23;20154;-88
2022/08/24 03:47:16;;;;;;;5.33;3.67;;;;;;;22.73;81.25;98592.88;6040210;23;20163;-89
2022/08/24 03:49:41;;;;;;;5.47;3.03;;;;;;;22.54;81.29;98599.38;6039862;23;20165;-89
2022/08/24 03:52:07;;;;;;;9.77;4.10;;;;;;;22.57;81.15;98599.88;6038717;23;20158;-88
2022/08/24 03:54:32;;;;;;;6.40;2.97;;;;;;;22.58;80.56;98604.25;6039800;23;20160;-88
2022/08/24 03:56:58;;;;;;;6.37;3.73;;;;;;;22.70;80.05;98602.06;6039793;23;20154;-89
2022/08/24 03:59:24;;;;;;;5.80;3.20;;;;;;;22.60;80.56;98604.91;6040114;23;20220;-89
2022/08/24 04:01:50;;;;;;;6.87;3.87;;;;;;;22.62;80.43;98602.91;6039428;23;20153;-89
2022/08/24 04:04:15;;;;;;;6.63;3.57;;;;;;;22.61;80.16;98611.88;6039984;23;20200;-89
2022/08/24 04:06:43;;;;;;;9.63;3.60;;;;;;;22.58;80.36;98612.25;6039692;23;20585;-89
2022/08/24 04:09:09;;;;;;;5.67;3.37;;;;;;;22.50;80.71;98612.25;6038888;23;20494;-89
2022/08/24 04:11:35;;;;;;;5.80;3.23;;;;;;;22.64;80.52;98606.25;6039724;23;20162;-89
2022/08/24 04:14:00;;;;;;;7.83;3.20;;;;;;;22.88;79.18;98601.84;6039646;23;20156;-89
2022/08/24 04:16:27;;;;;;;5.07;2.80;;;;;;;22.90;78.69;98611.41;6040206;23;20150;-88
2022/08/24 04:18:53;;;;;;;6.47;2.77;;;;;;;22.86;78.72;98617.22;6039034;23;20641;-89
2022/08/24 04:21:23;;;;;;;4.90;2.83;;;;;;;22.93;78.42;98612.88;6039650;23;20245;-88
2022/08/24 04:23:50;;;;;;;4.90;2.80;;;;;;;22.98;78.12;98610.53;6039940;23;20170;-88
2022/08/24 04:26:18;;;;;;;6.63;3.53;;;;;;;23.09;78.39;98626.19;6039668;23;20154;-88
2022/08/24 04:28:43;;;;;;;6.73;2.93;;;;;;;23.06;78.03;98622.00;6036514;23;20165;-89
2022/08/24 04:31:09;;;;;;;5.73;3.23;;;;;;;23.24;77.24;98619.94;6037316;23;20150;-88
2022/08/24 04:33:35;;;;;;;6.03;3.17;;;;;;;23.27;77.50;98624.94;6038590;23;20489;-87
2022/08/24 04:36:01;;;;;;;7.40;3.17;;;;;;;23.28;77.13;98628.47;6036427;23;20173;-88
2022/08/24 04:38:28;;;;;;;6.47;3.37;;;;;;;23.42;76.51;98627.78;6037828;23;20221;-88
2022/08/24 04:40:54;;;;;;;6.83;3.47;;;;;;;23.38;76.09;98634.47;6039857;23;20216;-88
2022/08/24 04:43:19;;;;;;;7.17;4.23;;;;;;;23.45;76.09;98637.31;6040117;23;20178;-88
2022/08/24 04:45:46;;;;;;;5.40;3.30;;;;;;;23.33;76.21;98639.47;6039868;23;20563;-88
2022/08/24 04:48:14;;;;;;;4.83;3.13;;;;;;;23.42;77.08;98630.47;6039541;23;20160;-88
2022/08/24 04:50:41;;;;;;;7.20;3.73;;;;;;;23.57;75.60;98634.06;6039847;23;20236;-88
2022/08/24 04:53:08;;;;;;;6.27;3.53;;;;;;;23.53;75.87;98638.06;6039498;23;20178;-89
2022/08/24 04:55:42;;;;;;;6.33;3.20;;;;;;;23.40;76.21;98643.16;6039891;23;20623;-88
2022/08/24 04:58:08;;;;;;;8.03;4.17;;;;;;;23.52;75.73;98647.13;6039509;23;20138;-88
2022/08/24 05:00:34;;;;;;;5.83;2.70;;;;;;;23.60;74.94;98636.38;6039504;23;20150;-88
2022/08/24 05:02:59;;;;;;;6.87;3.23;;;;;;;23.54;74.58;98637.09;6039672;23;20184;-89
2022/08/24 05:05:25;;;;;;;7.83;2.90;;;;;;;23.55;75.14;98633.41;6039408;23;20598;-89
2022/08/24 05:07:50;;;;;;;5.50;3.00;;;;;;;23.71;74.93;98633.34;6039799;23;20154;-89
2022/08/24 05:10:16;;;;;;;6.77;3.50;;;;;;;23.71;74.82;98627.13;6039467;23;20486;-89
2022/08/24 05:12:43;;;;;;;7.57;3.53;;;;;;;23.74;74.38;98632.94;6040703;23;20172;-88
2022/08/24 05:15:08;;;;;;;4.97;2.70;;;;;;;23.97;73.64;98632.16;6041183;23;20158;-89
2022/08/24 05:17:34;;;;;;;5.60;3.00;;;;;;;23.93;72.98;98631.66;6040043;23;20245;-89
2022/08/24 05:19:59;;;;;;;8.23;3.60;;;;;;;24.03;73.13;98626.91;6040043;23;20169;-89
2022/08/24 05:22:25;;;;;;;5.60;3.00;;;;;;;24.16;72.91;98632.53;6039914;23;20573;-89
2022/08/24 05:24:50;;;;;;;7.70;2.87;;;;;;;24.18;72.72;98635.06;6041478;23;20154;-89
2022/08/24 05:27:17;;;;;;;4.43;2.83;;;;;;;24.25;72.12;98636.00;6041036;23;20484;-89
2022/08/24 05:29:46;;;;;;;4.20;2.30;;;;;;;24.24;71.62;98634.34;6041459;23;20154;-89
2022/08/24 05:32:11;;;;;;;9.10;3.67;;;;;;;24.27;72.48;98633.97;6040936;23;20170;-89
2022/08/24 05:34:37;;;;;;;4.00;2.43;;;;;;;24.30;72.26;98628.25;6040283;23;20168;-89
2022/08/24 05:37:03;;;;;;;9.27;3.13;;;;;;;24.26;72.57;98629.66;6041084;23;20154;-88
2022/08/24 05:39:30;;;;;;;7.57;2.73;;;;;;;24.16;71.30;98631.72;6039850;23;20157;-89
2022/08/24 05:41:55;;;;;;;4.83;2.63;;;;;;;24.34;71.77;98640.31;6041003;23;20586;-89
2022/08/24 05:44:23;;;;;;;6.63;2.70;;;;;;;24.47;71.65;98635.16;6039827;23;20178;-90
2022/08/24 05:46:48;;;;;;;8.47;2.63;;;;;;;24.48;71.05;98642.16;6041605;23;20621;-88
2022/08/24 05:49:14;;;;;;;5.87;2.87;;;;;;;24.63;70.76;98647.59;6040969;23;20149;-89
2022/08/24 05:51:41;;;;;;;4.73;2.70;;;;;;;24.80;69.70;98644.59;6039700;23;20535;-89
2022/08/24 05:54:08;;;;;;;5.43;2.90;;;;;;;24.73;69.43;98643.63;6040926;23;20215;-89
2022/08/24 05:56:34;;;;;;;9.07;3.40;;;;;;;24.55;70.13;98639.63;6041237;23;20174;-90
2022/08/24 05:58:59;;;;;;;5.40;3.30;;;;;;;24.65;70.45;98641.03;6040854;23;20161;-89
2022/08/24 06:01:26;;;;;;;5.40;2.93;;;;;;;24.74;70.52;98636.41;6040859;23;20486;-89
2022/08/24 06:03:53;;;;;;;6.27;3.00;;;;;;;24.78;69.99;98635.91;6040727;23;20633;-89
2022/08/24 06:06:20;;;;;;;6.13;3.27;;;;;;;24.67;69.79;98635.47;6040824;23;20501;-89
2022/08/24 06:08:49;;;;;;;6.77;3.03;;;;;;;24.82;69.77;98641.72;6041082;23;20160;-89
2022/08/24 06:11:31;;;;;;;6.40;3.20;;;;;;;24.91;69.13;98644.16;6040832;23;20166;-89
2022/08/24 06:14:03;;;;;;;5.80;3.13;;;;;;;24.85;69.63;98649.41;6041416;23;20138;-89
2022/08/24 06:16:29;;;;;;;5.43;3.53;;;;;;;25.09;69.83;98640.28;6039522;23;20168;-88
2022/08/24 06:18:55;;;;;;;6.73;3.23;;;;;;;25.55;67.40;98647.97;6039514;23;20158;-89
2022/08/24 06:21:24;;;;;;;6.53;3.20;;;;;;;25.86;67.48;98647.75;6040627;23;20225;-89
2022/08/24 06:23:50;;;;;;;5.37;2.60;;;;;;;26.13;65.73;98638.97;6040109;23;20580;-88
2022/08/24 06:29:03;;;;;;;7.07;3.03;;;;;;;26.29;64.71;98642.41;6040962;23;20169;-89
2022/08/24 06:31:29;;;;;;;5.23;2.60;;;;;;;26.27;63.69;98645.31;6039238;23;20629;-89
2022/08/24 06:33:54;;;;;;;11.10;3.23;;;;;;;26.55;64.10;98643.47;6040880;23;20544;-88
2022/08/24 06:36:21;;;;;;;5.27;2.70;;;;;;;26.80;61.36;98642.09;6039354;23;20241;-89
2022/08/24 06:38:46;;;;;;;5.10;2.57;;;;;;;27.06;59.94;98648.66;6040776;23;20245;-89
2022/08/24 06:41:13;;;;;;;5.93;3.00;;;;;;;27.30;59.21;98640.97;6040878;23;20157;-88
2022/08/24 06:43:38;;;;;;;5.00;2.22;;;;;;;27.58;58.28;98642.78;6040341;23;20309;-90
2022/08/24 06:46:04;;;;;;;3.97;2.28;;;;;;;27.69;56.33;98640.34;6040431;23;20174;-89
2022/08/24 06:48:31;;;;;;;6.70;2.53;;;;;;;27.88;55.41;98641.47;6039220;23;20162;-89
2022/08/24 06:50:58;;;;;;;8.45;3.08;;;;;;;27.83;57.08;98633.16;6040428;23;20149;-89
2022/08/24 06:53:24;;;;;;;7.28;2.88;;;;;;;28.07;55.86;98645.28;6040336;23;20214;-89
2022/08/24 06:55:54;;;;;;;6.03;3.38;;;;;;;28.22;55.57;98643.22;6040695;23;20162;-89
2022/08/24 06:58:20;;;;;;;5.65;2.92;;;;;;;28.37;55.21;98644.69;6040292;23;20161;-88
2022/08/24 07:00:47;;;;;;;5.70;3.03;;;;;;;28.53;55.36;98648.88;6039140;23;20175;-89
2022/08/24 07:03:14;;;;;;;5.18;2.53;;;;;;;28.70;55.56;98652.00;6040172;23;20222;-89
2022/08/24 07:05:39;;;;;;;5.30;2.78;;;;;;;28.98;54.71;98655.31;6040537;23;20646;-89
2022/08/24 07:08:06;;;;;;;8.70;3.03;;;;;;;28.98;52.96;98660.72;6040541;23;20149;-89
2022/08/24 07:10:33;;;;;;;6.07;2.83;;;;;;;28.83;54.01;98657.38;6040232;23;20205;-90
2022/08/24 07:12:58;;;;;;;4.57;2.63;;;;;;;29.00;53.75;98661.34;6040146;23;20156;-89
2022/08/24 07:15:26;;;;;;;6.63;3.33;;;;;;;29.27;54.85;98656.75;6040509;23;20150;-89
2022/08/24 07:17:52;;;;;;;11.10;3.67;;;;;;;29.27;53.12;98657.59;6040139;23;20153;-88
2022/08/24 07:20:18;;;;;;;5.90;2.75;;;;;;;29.13;54.20;98664.00;6040490;23;20160;-89
2022/08/24 07:22:44;;;;;;;5.65;2.40;;;;;;;29.24;54.42;98660.72;6040047;23;20177;-88
2022/08/24 07:25:11;;;;;;;6.43;3.28;;;;;;;29.59;54.85;98661.22;6040085;23;20150;-88
2022/08/24 07:27:38;;;;;;;4.95;2.90;;;;;;;29.59;52.84;98659.34;6038914;23;20236;-90
2022/08/24 07:30:05;;;;;;;4.93;3.08;;;;;;;29.49;53.70;98656.28;6040673;23;20160;-90
2022/08/24 07:32:32;;;;;;;7.88;3.13;;;;;;;29.70;53.80;98657.84;6039751;23;20590;-90
2022/08/24 07:34:58;;;;;;;7.47;3.05;;;;;;;29.60;52.40;98658.31;6040191;23;20518;-89
2022/08/24 07:37:24;;;;;;;7.72;2.95;;;;;;;29.62;53.19;98653.53;6040021;23;20160;-90
2022/08/24 07:39:50;;;;;;;5.70;2.58;;;;;;;29.90;51.59;98663.22;6038801;23;20515;-90
2022/08/24 07:42:15;;;;;;;5.07;2.65;;;;;;;29.96;51.11;98665.88;6038677;23;20593;-89
2022/08/24 07:44:41;;;;;;;6.13;3.80;;;;;;;30.02;51.65;98669.59;6039834;23;20154;-89
2022/08/24 07:47:06;;;;;;;4.80;2.58;;;;;;;29.80;50.76;98675.31;6039832;23;20154;-89
2022/08/24 07:49:32;;;;;;;5.70;2.70;;;;;;;29.86;50.40;98679.03;6039860;23;20544;-88
2022/08/24 07:51:58;;;;;;;5.88;3.33;;;;;;;29.45;52.35;98663.16;6038648;23;20168;-89
2022/08/24 07:54:24;;;;;;;6.68;3.10;;;;;;;29.74;52.08;98665.31;6040459;23;20157;-89
2022/08/24 07:56:49;;;;;;;5.45;2.95;;;;;;;29.73;51.25;98657.44;6038583;23;20616;-89
2022/08/24 07:59:16;;;;;;;4.20;2.60;;;;;;;30.05;52.77;98661.06;6038658;23;20162;-90
2022/08/24 08:01:41;;;;;;;6.90;2.90;;;;;;;30.01;50.09;98647.13;6039831;23;20150;-89
2022/08/24 08:04:09;;;;;;;4.40;2.50;;;;;;;29.93;48.99;98655.50;6040043;23;20237;-89
2022/08/24 08:06:35;;;;;;;6.38;3.15;;;;;;;30.09;49.66;98646.03;6040082;23;20225;-88
2022/08/24 08:09:03;;;;;;;4.95;2.65;;;;;;;30.26;48.44;98647.22;6040441;23;20490;-89
2022/08/24 08:11:29;;;;;;;4.85;2.80;;;;;;;30.16;48.68;98652.25;6039704;23;20169;-89
2022/08/24 08:13:54;;;;;;;6.97;3.10;;;;;;;30.17;48.07;98649.34;6038493;23;20159;-89
2022/08/24 08:16:20;;;;;;;6.50;2.45;;;;;;;30.28;48.83;98639.69;6040327;23;20154;-90
2022/08/24 08:18:46;;;;;;;4.95;2.70;;;;;;;30.27;46.94;98638.88;6038521;23;20153;-89
2022/08/24 08:24:14;;;;;;;8.20;2.47;;;;;;;30.76;46.15;98630.00;6039644;23;20510;-91
2022/08/24 08:26:42;;;;;;;4.30;2.40;;;;;;;30.81;45.91;98643.69;6039965;23;20142;-89
2022/08/24 08:29:09;;;;;;;3.88;2.05;;;;;;;30.89;44.42;98639.88;6039574;23;20498;-90
2022/08/24 08:31:36;;;;;;;4.20;2.30;;;;;;;30.94;45.04;98640.06;6039430;23;20201;-90
2022/08/24 08:34:02;;;;;;;4.35;2.47;;;;;;;30.69;46.06;98658.97;6038492;23;20154;-90
2022/08/24 08:36:28;;;;;;;5.68;2.83;;;;;;;30.84;46.49;98656.78;6038389;23;20192;-90
2022/08/24 08:38:54;;;;;;;5.85;2.20;;;;;;;31.17;45.59;98642.97;6038395;23;20158;-90
2022/08/24 08:41:51;;;;;;;4.60;2.22;;;;;;;31.17;44.88;98653.78;6039953;23;20154;-90
2022/08/24 08:44:32;;;;;;;5.07;2.38;;;;;;;31.44;45.30;98646.22;5992601;23;20221;-89
2022/08/24 08:47:36;;;;;;;8.77;3.42;;;;;;;31.73;45.32;98650.06;6040679;23;20142;-90
2022/08/24 08:50:39;;;;;;;7.32;2.90;;;;;;;31.91;45.25;98636.50;6041833;23;20157;-90
2022/08/24 08:53:25;;;;;;;3.65;2.10;;;;;;;31.83;43.89;98632.22;6009608;23;20205;-89
2022/08/24 08:56:22;;;;;;;8.57;3.00;;;;;;;32.05;44.35;98638.81;6041830;23;20148;-90
2022/08/24 08:59:05;;;;;;;5.80;2.83;;;;;;;31.86;45.04;98629.06;6042081;23;20192;-90
2022/08/24 09:01:55;;;;;;;7.68;2.58;;;;;;;32.12;44.56;98623.28;6040193;23;20164;-90
2022/08/24 09:04:26;;;;;;;6.30;2.88;;;;;;;31.95;44.62;98611.38;6040137;23;20174;-90
2022/08/24 09:07:10;;;;;;;3.95;2.10;;;;;;;32.25;44.57;98618.72;6041671;23;20157;-91
2022/08/24 09:09:48;;;;;;;5.32;2.60;;;;;;;32.45;43.64;98617.34;6041705;23;20142;-90
2022/08/24 09:12:18;;;;;;;6.95;2.20;;;;;;;32.47;43.78;98614.41;6041964;23;20161;-90
2022/08/24 09:15:08;;;;;;;4.57;2.40;;;;;;;32.26;42.85;98612.25;6040488;23;20217;-90
2022/08/24 09:17:46;;;;;;;3.25;2.15;;;;;;;32.26;42.58;98607.63;6041978;23;20157;-90
2022/08/24 09:20:24;;;;;;;7.80;2.45;;;;;;;32.28;43.82;98616.38;6040452;23;20551;-90
2022/08/24 09:23:07;;;;;;;4.25;2.10;;;;;;;32.47;43.05;98609.00;6040061;23;20674;-90
2022/08/24 09:26:01;;;;;;;7.20;2.45;;;;;;;32.59;42.26;98599.84;6041615;23;20134;-91
2022/08/24 09:28:44;;;;;;;4.05;2.28;;;;;;;32.06;42.88;98593.53;6040074;23;20166;-91
2022/08/24 09:32:00;;;;;;;5.93;2.58;;;;;;;31.76;44.43;98593.50;6041416;23;20134;-91
2022/08/24 09:35:02;;;;;;;7.50;2.58;;;;;;;31.51;44.85;98590.09;5957014;23;20249;-91
2022/08/24 09:37:59;;;;;;;5.82;2.25;;;;;;;31.38;44.79;98587.50;6041010;23;20146;-90
2022/08/24 09:40:50;;;;;;;5.13;2.67;;;;;;;31.27;45.17;98589.09;6039971;23;20157;-90
2022/08/24 09:43:52;;;;;;;3.60;2.17;;;;;;;31.53;45.74;98598.81;6002965;23;20186;-90
2022/08/24 09:46:38;;;;;;;4.28;1.95;;;;;;;31.30;45.11;98591.34;6041402;23;20167;-90
2022/08/24 09:49:32;;;;;;;8.27;2.17;;;;;;;31.45;46.07;98582.84;6039824;23;20165;-91
2022/08/24 09:52:38;;;;;;;6.05;2.53;;;;;;;31.46;45.37;98579.09;6039824;23;20157;-91
2022/08/24 09:55:23;;;;;;;5.40;2.88;;;;;;;31.52;45.93;98589.88;6034965;23;20655;-91
2022/08/24 09:58:10;;;;;;;5.55;2.95;;;;;;;31.57;45.74;98598.16;6039580;23;20172;-90
2022/08/24 10:00:49;;;;;;;6.53;2.85;;;;;;;31.65;44.51;98602.44;6041103;23;20149;-90
2022/08/24 10:04:27;;;;;;;6.85;2.70;;;;;;;31.51;46.25;98592.81;6039719;23;20257;-90
2022/08/24 10:07:28;;;;;;;5.88;2.55;;;;;;;31.82;45.06;98591.75;6016810;23;20221;-90
2022/08/24 10:10:36;;;;;;;6.60;2.85;;;;;;;32.41;44.85;98583.63;6041178;23;20144;-91
2022/08/24 10:13:47;;;;;;;6.10;2.33;;;;;;;32.56;44.24;98586.72;6041565;23;20141;-90
2022/08/24 10:16:26;;;;;;;7.95;3.50;;;;;;;32.60;43.05;98576.25;6039950;23;20145;-89
2022/08/24 10:19:39;;;;;;;6.63;3.22;;;;;;;32.60;43.79;98579.75;6039552;23;20153;-90
2022/08/24 10:22:16;;;;;;;10.88;2.75;;;;;;;32.92;43.07;98579.41;6012845;23;20606;-90
2022/08/24 10:25:09;;;;;;;;;;;;;;;;;;;;;
2022/08/24 10:27:59;;;;;;;16.27;3.03;;;;;;;33.04;43.20;98567.53;6041314;23;20555;-90
2022/08/24 10:31:06;;;;;;;7.10;3.20;;;;;;;33.30;43.65;98556.13;6063385;23;20157;-91
2022/08/24 10:33:50;;;;;;;4.75;2.75;;;;;;;33.27;42.10;98566.63;6039439;23;20465;-89
2022/08/24 10:36:40;;;;;;;5.57;2.40;;;;;;;33.67;42.03;98556.63;6039460;23;20145;-91
2022/08/24 10:39:44;;;;;;;6.30;2.00;;;;;;;34.04;42.47;98553.50;6039459;23;20563;-90
2022/08/24 10:45:24;;;;;;;6.53;3.00;;;;;;;34.11;40.34;98544.13;6040541;23;20157;-91
2022/08/24 10:48:02;;;;;;;7.55;1.92;;;;;;;33.88;40.38;98550.47;6040803;23;20185;-91
2022/08/24 10:50:47;;;;;;;4.70;2.92;;;;;;;33.66;40.99;98543.25;6041025;23;20166;-90
2022/08/24 10:53:26;;;;;;;4.13;2.03;;;;;;;33.97;41.83;98540.03;6040355;23;20453;-91
2022/08/24 10:56:07;;;;;;;7.18;2.45;;;;;;;34.24;40.18;98535.66;6039612;23;20142;-90
2022/08/24 10:59:20;;;;;;;6.55;2.38;;;;;;;34.46;40.26;98539.28;6040738;23;20133;-91
2022/08/24 11:02:00;;;;;;;5.93;2.22;;;;;;;34.22;40.40;98545.13;6015032;23;20229;-91
2022/08/24 11:04:29;;;;;;;5.78;2.47;;;;;;;34.32;39.38;98545.31;6039198;23;20237;-90
2022/08/24 11:07:13;;;;;;;3.05;1.73;;;;;;;34.76;39.47;98538.13;6041059;23;20161;-91
2022/08/24 11:09:52;;;;;;;9.15;2.33;;;;;;;34.64;39.34;98535.50;6039085;23;20241;-92
2022/08/24 11:12:42;;;;;;;;;;;;;;;;;;;;;
2022/08/24 11:15:26;;;;;;;;;;;;;;;;;;;;;
2022/08/24 11:18:05;;;;;;;4.47;2.95;;;;;;;34.71;38.81;98544.31;6040974;23;20225;-91
2022/08/24 11:20:59;;;;;;;;;;;;;;;;;;;;;
2022/08/24 11:24:12;;;;;;;8.40;1.98;;;;;;;34.73;38.77;98538.59;6040878;23;20240;-90
2022/08/24 11:27:16;;;;;;;8.15;2.42;;;;;;;34.72;39.27;98542.44;6039421;23;20153;-92
2022/08/24 11:30:37;;;;;;;10.82;2.38;;;;;;;34.69;39.40;98538.31;6039200;23;20162;-92
2022/08/24 11:33:25;;;;;;;7.28;2.42;;;;;;;34.46;40.07;98555.59;6024851;23;20600;-92
2022/08/24 11:35:58;;;;;;;5.00;2.50;;;;;;;34.20;40.56;98539.94;6038916;23;20162;-92
2022/08/24 11:38:30;;;;;;;13.07;2.78;;;;;;;34.22;40.63;98556.84;6039115;23;20150;-91
2022/08/24 11:41:06;;;;;;;8.85;2.05;;;;;;;34.51;40.13;98552.94;6039868;23;20558;-91
2022/08/24 11:44:13;;;;;;;6.43;2.30;;;;;;;34.52;40.33;98554.63;6040180;23;20265;-91
2022/08/24 11:50:04;;;;;;;8.50;2.35;;;;;;;34.75;40.34;98550.09;6025623;23;20180;-91
2022/08/24 11:53:08;;;;;;;5.38;1.85;;;;;;;34.76;39.81;98538.13;6039583;23;20173;-91
2022/08/24 11:56:00;;;;;;;8.35;2.15;;;;;;;35.12;40.39;98529.38;6040195;23;20149;-91
2022/08/24 11:58:50;;;;;;;6.07;2.05;;;;;;;35.02;39.34;98519.16;6040691;23;20139;-91
2022/08/24 12:01:38;;;;;;;7.50;1.73;;;;;;;35.27;39.13;98518.69;6039795;23;20241;-91
2022/08/24 12:07:38;;;;;;;4.47;1.67;;;;;;;35.29;38.22;98515.72;5953410;24;20622;-91
2022/08/24 12:10:33;;;;;;;8.45;1.50;;;;;;;35.22;38.60;98526.81;6040493;23;20209;-90
2022/08/24 12:13:30;;;;;;;5.35;1.67;;;;;;;35.18;39.17;98521.03;6040105;23;20213;-91
2022/08/24 12:16:32;;;;;;;9.23;1.92;;;;;;;34.64;38.72;98512.91;6038736;23;20153;-91
2022/08/24 12:19:37;;;;;;;7.03;1.40;;;;;;;34.63;39.86;98519.41;6040134;23;20160;-90
2022/08/24 12:22:25;;;;;;;7.20;1.90;;;;;;;34.82;39.65;98523.50;6038901;23;20146;-90
2022/08/24 12:28:26;;;;;;;;;;;;;;;;;;;;;